createdAt,value
2022-08-16T00:01:03.998Z,3.50
2022-08-16T00:03:37.655Z,3.20
2022-08-16T00:06:04.759Z,3.53
2022-08-16T00:08:37.043Z,3.30
2022-08-16T00:11:15.536Z,3.30
2022-08-16T00:13:53.861Z,3.22
2022-08-16T00:17:05.458Z,3.53
2022-08-16T00:19:23.976Z,3.25
2022-08-16T00:21:54.515Z,3.33
2022-08-16T00:24:32.760Z,3.40
2022-08-16T00:27:02.544Z,3.47
2022-08-16T00:29:30.173Z,3.33
2022-08-16T00:32:00.430Z,3.50
2022-08-16T00:34:44.373Z,3.33
2022-08-16T00:37:18.498Z,3.55
2022-08-16T00:39:57.319Z,3.10
2022-08-16T00:42:31.694Z,3.35
2022-08-16T00:45:25.042Z,3.33
2022-08-16T00:47:53.075Z,3.47
2022-08-16T00:50:36.002Z,3.55
2022-08-16T00:53:10.051Z,3.65
2022-08-16T00:55:41.961Z,3.63
2022-08-16T00:58:13.199Z,3.60
2022-08-16T01:00:45.721Z,4.10
2022-08-16T01:03:31.613Z,3.15
2022-08-16T01:06:39.654Z,3.80
2022-08-16T01:08:53.816Z,3.50
2022-08-16T01:11:24.375Z,3.70
2022-08-16T01:13:56.928Z,2.95
2022-08-16T01:16:28.428Z,3.60
2022-08-16T01:19:02.676Z,3.65
2022-08-16T01:21:36.185Z,3.67
2022-08-16T01:24:53.030Z,3.40
2022-08-16T01:27:28.457Z,3.72
2022-08-16T01:30:19.353Z,3.58
2022-08-16T01:33:02.859Z,3.30
2022-08-16T01:36:12.068Z,3.45
2022-08-16T01:38:48.979Z,3.67
2022-08-16T01:41:22.750Z,3.60
2022-08-16T01:43:54.070Z,3.50
2022-08-16T01:46:39.864Z,3.70
2022-08-16T01:49:43.060Z,3.65
2022-08-16T01:52:29.301Z,3.88
2022-08-16T01:55:22.547Z,3.72
2022-08-16T01:57:53.490Z,4.22
2022-08-16T02:00:28.961Z,4.00
2022-08-16T02:02:58.027Z,4.00
2022-08-16T02:05:24.831Z,4.10
2022-08-16T02:07:53.508Z,4.00
2022-08-16T02:10:21.033Z,3.60
2022-08-16T02:12:56.006Z,3.80
2022-08-16T02:15:30.386Z,3.40
2022-08-16T02:18:01.190Z,4.10
2022-08-16T02:20:32.231Z,3.85
2022-08-16T02:23:01.550Z,3.58
2022-08-16T02:25:50.830Z,3.90
2022-08-16T02:28:17.203Z,3.58
2022-08-16T02:30:50.625Z,4.10
2022-08-16T02:33:18.638Z,4.05
2022-08-16T02:35:53.935Z,4.55
2022-08-16T02:38:31.612Z,4.10
2022-08-16T02:41:02.130Z,4.35
2022-08-16T02:43:36.034Z,4.40
2022-08-16T02:46:08.042Z,4.47
2022-08-16T02:48:38.662Z,4.38
2022-08-16T02:51:11.430Z,4.53
2022-08-16T02:53:45.140Z,4.72
2022-08-16T02:56:15.650Z,4.22
2022-08-16T02:58:46.060Z,4.30
2022-08-16T03:01:24.693Z,4.50
2022-08-16T03:04:41.500Z,4.50
2022-08-16T03:06:43.176Z,4.78
2022-08-16T03:09:20.492Z,4.78
2022-08-16T03:11:52.082Z,4.95
2022-08-16T03:14:20.886Z,4.70
2022-08-16T03:16:59.617Z,4.63
2022-08-16T03:19:48.554Z,4.43
2022-08-16T03:22:28.125Z,4.63
2022-08-16T03:25:01.440Z,4.55
2022-08-16T03:27:32.401Z,4.80
2022-08-16T03:30:16.287Z,5.05
2022-08-16T03:32:51.398Z,4.63
2022-08-16T03:35:33.262Z,4.75
2022-08-16T03:38:34.200Z,4.15
2022-08-16T03:40:58.766Z,4.35
2022-08-16T03:43:51.359Z,4.82
2022-08-16T03:46:47.281Z,4.88
2022-08-16T03:49:05.056Z,4.85
2022-08-16T03:51:34.600Z,5.00
2022-08-16T03:54:12.115Z,4.82
2022-08-16T03:56:57.863Z,4.80
2022-08-16T03:59:30.262Z,5.00
2022-08-16T04:02:12.141Z,5.05
2022-08-16T04:04:50.584Z,4.65
2022-08-16T04:07:17.574Z,4.60
2022-08-16T04:09:47.152Z,4.82
2022-08-16T04:12:53.077Z,4.70
2022-08-16T04:15:02.879Z,4.60
2022-08-16T04:17:36.368Z,4.45
2022-08-16T04:20:23.858Z,4.53
2022-08-16T04:22:57.713Z,4.43
2022-08-16T04:25:27.155Z,5.13
2022-08-16T04:27:55.996Z,4.82
2022-08-16T04:30:31.920Z,5.40
2022-08-16T04:33:02.241Z,4.82
2022-08-16T04:35:34.539Z,5.40
2022-08-16T04:38:10.607Z,4.47
2022-08-16T04:40:48.014Z,4.30
2022-08-16T04:43:17.647Z,4.45
2022-08-16T04:45:45.712Z,5.10
2022-08-16T04:48:21.736Z,5.15
2022-08-16T04:50:56.830Z,4.50
2022-08-16T04:53:36.706Z,4.72
2022-08-16T04:56:11.170Z,4.60
2022-08-16T04:58:45.456Z,4.38
2022-08-16T05:01:15.361Z,4.82
2022-08-16T05:04:00.752Z,4.80
2022-08-16T05:06:42.310Z,4.60
2022-08-16T05:09:36.565Z,4.57
2022-08-16T05:12:06.458Z,4.65
2022-08-16T05:14:45.809Z,4.80
2022-08-16T05:17:19.834Z,5.13
2022-08-16T05:19:57.971Z,4.38
2022-08-16T05:22:33.057Z,4.38
2022-08-16T05:25:08.684Z,4.35
2022-08-16T05:27:42.921Z,4.43
2022-08-16T05:30:35.275Z,4.28
2022-08-16T05:33:01.436Z,4.85
2022-08-16T05:35:28.458Z,4.47
2022-08-16T05:38:30.899Z,4.60
2022-08-16T05:41:00.757Z,4.40
2022-08-16T05:46:28.611Z,4.93
2022-08-16T05:49:05.913Z,4.22
2022-08-16T05:51:38.332Z,4.78
2022-08-16T05:54:08.367Z,5.20
2022-08-16T05:56:39.279Z,5.00
2022-08-16T05:59:07.505Z,4.82
2022-08-16T06:01:37.792Z,4.70
2022-08-16T06:04:12.729Z,4.60
2022-08-16T06:06:56.593Z,4.20
2022-08-16T06:09:43.068Z,4.60
2022-08-16T06:12:27.074Z,4.28
2022-08-16T06:15:07.649Z,4.22
2022-08-16T06:17:42.438Z,4.03
2022-08-16T06:20:23.438Z,4.10
2022-08-16T06:22:57.698Z,3.55
2022-08-16T06:25:36.336Z,3.33
2022-08-16T06:28:09.444Z,3.30
2022-08-16T06:30:44.057Z,3.30
2022-08-16T06:33:19.933Z,2.90
2022-08-16T06:35:55.151Z,2.83
2022-08-16T06:38:33.601Z,2.97
2022-08-16T06:41:14.047Z,2.80
2022-08-16T06:43:43.154Z,2.85
2022-08-16T06:46:31.771Z,2.70
2022-08-16T06:49:13.306Z,2.58
2022-08-16T06:51:46.358Z,2.70
2022-08-16T06:54:18.971Z,2.58
2022-08-16T06:56:46.086Z,2.60
2022-08-16T06:59:14.745Z,2.65
2022-08-16T07:01:54.443Z,2.45
2022-08-16T07:04:32.791Z,2.90
2022-08-16T07:07:19.427Z,2.88
2022-08-16T07:09:47.799Z,2.40
2022-08-16T07:12:19.477Z,2.83
2022-08-16T07:14:49.058Z,2.67
2022-08-16T07:17:19.434Z,2.33
2022-08-16T07:20:03.083Z,2.70
2022-08-16T07:22:52.910Z,2.90
2022-08-16T07:25:34.941Z,2.72
2022-08-16T07:28:09.335Z,2.70
2022-08-16T07:30:46.020Z,2.50
2022-08-16T07:33:52.629Z,2.88
2022-08-16T07:36:27.218Z,2.50
2022-08-16T07:38:56.492Z,2.78
2022-08-16T07:41:24.652Z,2.40
2022-08-16T07:43:59.882Z,2.88
2022-08-16T07:46:39.671Z,2.63
2022-08-16T07:49:21.956Z,2.67
2022-08-16T07:51:48.891Z,2.67
2022-08-16T07:54:32.259Z,2.60
2022-08-16T07:57:08.406Z,2.70
2022-08-16T07:59:45.679Z,2.58
2022-08-16T08:02:19.656Z,2.90
2022-08-16T08:04:51.861Z,2.50
2022-08-16T08:07:19.152Z,2.88
2022-08-16T08:12:32.286Z,2.70
2022-08-16T08:15:09.594Z,2.75
2022-08-16T08:17:42.624Z,2.65
2022-08-16T08:20:23.909Z,2.63
2022-08-16T08:23:00.714Z,2.60
2022-08-16T08:25:53.722Z,2.60
2022-08-16T08:28:21.189Z,3.08
2022-08-16T08:31:01.573Z,2.80
2022-08-16T08:33:33.928Z,2.55
2022-08-16T08:36:05.193Z,2.95
2022-08-16T08:38:45.332Z,2.97
2022-08-16T08:41:18.275Z,2.38
2022-08-16T08:43:50.637Z,2.50
2022-08-16T08:46:21.224Z,2.53
2022-08-16T08:51:38.342Z,2.70
2022-08-16T08:54:10.853Z,2.72
2022-08-16T08:56:45.280Z,2.70
2022-08-16T08:59:33.788Z,3.05
2022-08-16T09:02:09.238Z,2.40
2022-08-16T09:04:51.708Z,2.72
2022-08-16T09:07:23.638Z,2.58
2022-08-16T09:10:06.145Z,2.72
2022-08-16T09:12:37.257Z,2.60
2022-08-16T09:15:10.238Z,2.78
2022-08-16T09:17:51.609Z,2.88
2022-08-16T09:20:23.765Z,2.38
2022-08-16T09:22:54.415Z,2.38
2022-08-16T09:25:33.790Z,2.55
2022-08-16T09:28:09.427Z,2.60
2022-08-16T09:30:45.031Z,2.30
2022-08-16T09:33:18.390Z,2.80
2022-08-16T09:35:53.839Z,2.47
2022-08-16T09:38:31.791Z,2.90
2022-08-16T09:41:01.158Z,2.57
2022-08-16T09:43:58.570Z,2.33
2022-08-16T09:46:48.661Z,2.50
2022-08-16T09:49:03.564Z,2.30
2022-08-16T09:51:36.933Z,2.70
2022-08-16T09:54:05.513Z,2.40
2022-08-16T09:56:35.427Z,2.55
2022-08-16T09:59:08.193Z,2.60
2022-08-16T10:01:38.533Z,2.58
2022-08-16T10:04:30.244Z,2.30
2022-08-16T10:09:44.725Z,2.63
2022-08-16T10:12:31.320Z,2.70
2022-08-16T10:15:00.160Z,2.40
2022-08-16T10:17:27.863Z,2.78
2022-08-16T10:19:55.361Z,2.33
2022-08-16T10:22:23.265Z,2.40
2022-08-16T10:24:56.009Z,2.40
2022-08-16T10:27:46.977Z,2.50
2022-08-16T10:30:25.257Z,2.20
2022-08-16T10:32:55.506Z,2.40
2022-08-16T10:35:22.918Z,2.70
2022-08-16T10:37:52.387Z,2.67
2022-08-16T10:40:29.222Z,2.42
2022-08-16T10:43:00.327Z,2.65
2022-08-16T10:45:29.227Z,2.28
2022-08-16T10:48:23.932Z,2.03
2022-08-16T10:50:58.088Z,2.30
2022-08-16T10:53:32.967Z,2.70
2022-08-16T10:56:52.014Z,2.42
2022-08-16T10:58:53.359Z,2.38
2022-08-16T11:01:43.659Z,2.38
2022-08-16T11:05:04.931Z,2.13
2022-08-16T11:07:43.328Z,2.55
2022-08-16T11:09:43.203Z,2.30
2022-08-16T11:12:13.988Z,2.15
2022-08-16T11:15:11.336Z,2.42
2022-08-16T11:17:28.429Z,2.22
2022-08-16T11:20:36.691Z,2.70
2022-08-16T11:22:48.885Z,2.10
2022-08-16T11:28:10.736Z,2.10
2022-08-16T11:30:39.349Z,2.30
2022-08-16T11:33:07.945Z,2.00
2022-08-16T11:35:43.695Z,2.30
2022-08-16T11:38:47.266Z,2.20
2022-08-16T11:41:02.013Z,2.40
2022-08-16T11:43:31.781Z,2.55
2022-08-16T11:46:34.173Z,2.08
2022-08-16T11:48:50.922Z,2.22
2022-08-16T11:51:17.747Z,2.10
2022-08-16T11:53:45.077Z,2.20
2022-08-16T11:56:11.950Z,2.22
2022-08-16T11:58:41.836Z,2.42
2022-08-16T12:01:10.778Z,2.00
2022-08-16T12:06:25.181Z,2.20
2022-08-16T12:09:01.758Z,2.00
2022-08-16T12:11:31.705Z,2.08
2022-08-16T12:14:00.843Z,2.20
2022-08-16T12:16:31.268Z,2.08
2022-08-16T12:19:02.315Z,1.98
2022-08-16T12:21:35.866Z,2.30
2022-08-16T12:24:18.238Z,2.05
2022-08-16T12:26:45.127Z,2.15
2022-08-16T12:29:11.977Z,1.90
2022-08-16T12:31:38.952Z,2.30
2022-08-16T12:34:28.663Z,2.25
2022-08-16T12:36:56.279Z,2.40
2022-08-16T12:39:23.483Z,2.25
2022-08-16T12:41:56.384Z,2.10
2022-08-16T12:44:26.610Z,2.33
2022-08-16T12:47:16.891Z,2.00
2022-08-16T12:49:43.637Z,2.22
2022-08-16T12:52:33.205Z,2.20
2022-08-16T12:54:59.606Z,2.10
2022-08-16T12:57:36.584Z,2.08
2022-08-16T13:00:07.427Z,2.10
2022-08-16T13:02:36.447Z,2.10
2022-08-16T13:05:07.087Z,2.28
2022-08-16T13:07:37.599Z,2.10
2022-08-16T13:10:21.147Z,2.30
2022-08-16T13:13:01.562Z,2.25
2022-08-16T13:15:29.475Z,2.78
2022-08-16T13:17:57.883Z,2.20
2022-08-16T13:20:29.116Z,2.50
2022-08-16T13:23:06.422Z,2.10
2022-08-16T13:25:35.892Z,2.30
2022-08-16T13:28:04.593Z,1.92
2022-08-16T13:33:10.867Z,2.35
2022-08-16T13:35:43.021Z,2.00
2022-08-16T13:38:24.495Z,2.35
2022-08-16T13:40:55.993Z,2.25
2022-08-16T13:43:25.003Z,2.10
2022-08-16T13:45:53.319Z,2.22
2022-08-16T13:48:25.014Z,2.13
2022-08-16T13:50:56.338Z,2.08
2022-08-16T13:53:25.589Z,2.20
2022-08-16T13:55:58.684Z,2.10
2022-08-16T13:58:35.519Z,1.92
2022-08-16T14:01:10.031Z,2.15
2022-08-16T14:03:39.372Z,2.28
2022-08-16T14:08:42.459Z,2.25
2022-08-16T14:11:12.721Z,2.10
2022-08-16T14:13:44.304Z,2.38
2022-08-16T14:16:24.213Z,2.05
2022-08-16T14:18:57.075Z,2.30
2022-08-16T14:21:24.139Z,2.42
2022-08-16T14:23:54.529Z,2.25
2022-08-16T14:26:24.875Z,2.30
2022-08-16T14:28:52.563Z,1.90
2022-08-16T14:31:21.632Z,2.10
2022-08-16T14:33:50.512Z,2.28
2022-08-16T14:36:18.758Z,2.05
2022-08-16T14:38:57.893Z,1.63
2022-08-16T14:41:25.378Z,2.03
2022-08-16T14:43:52.125Z,1.98
2022-08-16T14:46:19.008Z,2.03
2022-08-16T14:48:46.428Z,2.45
2022-08-16T14:51:15.823Z,2.15
2022-08-16T14:56:17.300Z,2.08
2022-08-16T14:58:59.501Z,2.30
2022-08-16T15:01:57.477Z,2.20
2022-08-16T15:04:13.790Z,2.65
2022-08-16T15:07:00.469Z,2.30
2022-08-16T15:09:27.430Z,2.85
2022-08-16T15:11:54.471Z,2.63
2022-08-16T15:14:21.145Z,2.60
2022-08-16T15:16:49.307Z,2.90
2022-08-16T15:19:16.136Z,2.60
2022-08-16T15:21:43.916Z,2.60
2022-08-16T15:24:16.829Z,2.88
2022-08-16T15:26:49.459Z,2.40
2022-08-16T15:29:16.352Z,2.80
2022-08-16T15:31:44.477Z,2.78
2022-08-16T15:34:22.119Z,2.60
2022-08-16T15:36:53.931Z,2.85
2022-08-16T15:39:30.315Z,2.80
2022-08-16T15:42:11.036Z,2.70
2022-08-16T15:44:44.748Z,2.67
2022-08-16T15:47:22.341Z,2.80
2022-08-16T15:49:55.664Z,2.85
2022-08-16T15:52:30.395Z,2.92
2022-08-16T15:55:13.145Z,2.88
2022-08-16T15:57:51.362Z,2.70
2022-08-16T16:00:20.846Z,2.83
2022-08-16T16:02:49.512Z,2.95
2022-08-16T16:05:17.139Z,3.17
2022-08-16T16:07:55.813Z,2.83
2022-08-16T16:10:28.368Z,2.83
2022-08-16T16:12:58.147Z,2.63
2022-08-16T16:15:30.000Z,2.67
2022-08-16T16:17:57.543Z,2.38
2022-08-16T16:20:27.043Z,2.33
2022-08-16T16:23:01.620Z,2.47
2022-08-16T16:25:29.963Z,2.50
2022-08-16T16:27:59.633Z,2.30
2022-08-16T16:30:42.957Z,2.75
2022-08-16T16:33:21.039Z,2.53
2022-08-16T16:35:55.436Z,3.10
2022-08-16T16:38:28.997Z,2.60
2022-08-16T16:41:08.949Z,2.92
2022-08-16T16:43:42.375Z,2.78
2022-08-16T16:46:43.126Z,2.63
2022-08-16T16:48:58.076Z,3.00
2022-08-16T16:51:28.006Z,2.78
2022-08-16T16:53:56.913Z,2.67
2022-08-16T16:56:31.402Z,2.70
2022-08-16T16:59:09.391Z,2.65
2022-08-16T17:01:57.015Z,2.83
2022-08-16T17:04:31.556Z,2.60
2022-08-16T17:06:59.812Z,3.17
2022-08-16T17:09:26.516Z,2.83
2022-08-16T17:11:54.936Z,2.80
2022-08-16T17:17:08.609Z,3.08
2022-08-16T17:19:40.131Z,2.97
2022-08-16T17:22:14.697Z,2.83
2022-08-16T17:24:44.918Z,2.95
2022-08-16T17:27:18.110Z,3.30
2022-08-16T17:29:47.680Z,3.03
2022-08-16T17:32:46.484Z,3.05
2022-08-16T17:35:17.851Z,3.28
2022-08-16T17:37:51.435Z,2.83
2022-08-16T17:40:45.974Z,2.80
2022-08-16T17:43:14.961Z,2.55
2022-08-16T17:48:09.739Z,2.47
2022-08-16T17:50:37.502Z,2.50
2022-08-16T17:53:06.081Z,2.40
2022-08-16T17:55:36.160Z,2.40
2022-08-16T17:58:19.799Z,2.47
2022-08-16T18:00:51.734Z,2.72
2022-08-16T18:04:02.865Z,2.43
2022-08-16T18:06:12.701Z,2.30
2022-08-16T18:08:40.672Z,2.67
2022-08-16T18:11:10.484Z,2.40
2022-08-16T18:13:42.935Z,2.53
2022-08-16T18:16:10.342Z,2.83
2022-08-16T18:18:37.108Z,2.67
2022-08-16T18:21:22.486Z,2.65
2022-08-16T18:23:49.505Z,2.63
2022-08-16T18:26:16.219Z,2.60
2022-08-16T18:28:43.069Z,2.60
2022-08-16T18:31:10.361Z,2.97
2022-08-16T18:33:43.303Z,2.88
2022-08-16T18:36:20.927Z,3.00
2022-08-16T18:38:49.841Z,2.60
2022-08-16T18:41:17.803Z,3.10
2022-08-16T18:44:23.513Z,3.00
2022-08-16T18:46:31.321Z,2.78
2022-08-16T18:48:58.038Z,2.95
2022-08-16T18:51:25.737Z,2.90
2022-08-16T18:53:53.146Z,3.25
2022-08-16T18:56:19.977Z,3.30
2022-08-16T18:58:46.765Z,2.97
2022-08-16T19:01:13.711Z,3.17
2022-08-16T19:03:40.681Z,3.13
2022-08-16T19:06:13.813Z,3.20
2022-08-16T19:08:43.687Z,3.30
2022-08-16T19:11:15.106Z,3.30
2022-08-16T19:13:44.380Z,3.05
2022-08-16T19:18:38.576Z,3.08
2022-08-16T19:21:06.374Z,2.63
2022-08-16T19:23:35.658Z,2.78
2022-08-16T19:26:26.354Z,2.65
2022-08-16T19:28:59.059Z,2.80
2022-08-16T19:31:30.351Z,3.10
2022-08-16T19:33:57.566Z,3.30
2022-08-16T19:36:32.402Z,3.15
2022-08-16T19:39:06.859Z,3.47
2022-08-16T19:41:39.036Z,3.08
2022-08-16T19:44:06.808Z,3.13
2022-08-16T19:46:34.009Z,3.17
2022-08-16T19:49:01.025Z,2.88
2022-08-16T19:51:28.021Z,3.13
2022-08-16T19:53:54.868Z,3.40
2022-08-16T19:56:25.603Z,3.30
2022-08-16T19:59:17.638Z,3.17
2022-08-16T20:01:42.313Z,3.22
2022-08-16T20:04:12.699Z,3.38
2022-08-16T20:06:40.769Z,3.38
2022-08-16T20:09:07.641Z,3.30
2022-08-16T20:11:35.268Z,3.55
2022-08-16T20:14:02.652Z,3.95
2022-08-16T20:16:29.982Z,3.63
2022-08-16T20:18:56.749Z,3.40
2022-08-16T20:21:24.307Z,3.80
2022-08-16T20:23:51.472Z,3.38
2022-08-16T20:26:18.919Z,3.28
2022-08-16T20:28:54.331Z,3.70
2022-08-16T20:31:25.430Z,3.30
2022-08-16T20:33:53.326Z,3.13
2022-08-16T20:36:20.288Z,3.60
2022-08-16T20:38:47.837Z,3.53
2022-08-16T20:41:16.758Z,4.30
2022-08-16T20:43:43.765Z,3.47
2022-08-16T20:46:12.631Z,3.63
2022-08-16T20:48:39.809Z,3.67
2022-08-16T20:51:10.394Z,3.60
2022-08-16T20:53:42.366Z,3.20
2022-08-16T20:56:11.095Z,3.92
2022-08-16T20:58:38.452Z,3.38
2022-08-16T21:01:07.339Z,3.20
2022-08-16T21:03:34.702Z,3.97
2022-08-16T21:06:02.273Z,3.80
2022-08-16T21:08:53.109Z,3.28
2022-08-16T21:11:17.272Z,3.33
2022-08-16T21:13:44.070Z,3.70
2022-08-16T21:16:10.816Z,3.33
2022-08-16T21:18:37.686Z,3.30
2022-08-16T21:21:04.580Z,3.35
2022-08-16T21:23:31.255Z,3.60
2022-08-16T21:25:59.783Z,3.92
2022-08-16T21:28:41.553Z,3.60
2022-08-16T21:31:15.075Z,3.63
2022-08-16T21:33:43.222Z,3.42
2022-08-16T21:36:11.349Z,3.55
2022-08-16T21:38:38.999Z,3.67
2022-08-16T21:41:08.021Z,3.90
2022-08-16T21:43:35.260Z,3.67
2022-08-16T21:46:03.705Z,4.18
2022-08-16T21:48:33.944Z,3.85
2022-08-16T21:51:04.569Z,3.85
2022-08-16T21:53:31.570Z,3.72
2022-08-16T21:55:59.266Z,3.70
2022-08-16T21:58:26.133Z,3.92
2022-08-16T22:00:53.269Z,3.97
2022-08-16T22:03:21.158Z,4.00
2022-08-16T22:06:11.816Z,3.67
2022-08-16T22:08:47.830Z,3.92
2022-08-16T22:11:22.540Z,3.60
2022-08-16T22:13:58.322Z,3.65
2022-08-16T22:16:32.503Z,3.70
2022-08-16T22:18:59.782Z,3.63
2022-08-16T22:21:26.888Z,3.40
2022-08-16T22:23:56.734Z,3.83
2022-08-16T22:26:34.431Z,3.35
2022-08-16T22:29:06.723Z,3.55
2022-08-16T22:31:33.932Z,3.72
2022-08-16T22:34:01.912Z,3.60
2022-08-16T22:36:30.345Z,3.60
2022-08-16T22:38:59.128Z,4.00
2022-08-16T22:41:28.721Z,3.67
2022-08-16T22:43:56.328Z,3.53
2022-08-16T22:46:23.222Z,3.60
2022-08-16T22:48:50.902Z,4.10
2022-08-16T22:51:23.362Z,3.90
2022-08-16T22:53:50.667Z,4.20
2022-08-16T22:56:17.790Z,3.80
2022-08-16T22:58:45.784Z,3.92
2022-08-16T23:01:13.387Z,3.30
2022-08-16T23:03:40.920Z,3.72
2022-08-16T23:06:09.027Z,3.90
2022-08-16T23:08:40.528Z,3.63
2022-08-16T23:11:10.456Z,3.50
2022-08-16T23:13:37.415Z,3.88
2022-08-16T23:16:10.732Z,3.83
2022-08-16T23:18:38.973Z,3.90
2022-08-16T23:21:09.176Z,4.45
2022-08-16T23:23:37.447Z,4.10
2022-08-16T23:26:44.926Z,4.28
2022-08-16T23:28:52.360Z,4.32
2022-08-16T23:31:22.039Z,4.30
2022-08-16T23:33:48.805Z,4.22
2022-08-16T23:36:15.753Z,4.30
2022-08-16T23:38:43.009Z,4.30
2022-08-16T23:41:12.053Z,4.40
2022-08-16T23:43:43.170Z,4.53
2022-08-16T23:46:14.969Z,4.22
2022-08-16T23:49:45.137Z,4.20
2022-08-16T23:51:29.394Z,4.85
2022-08-16T23:53:56.247Z,4.40
2022-08-16T23:56:23.055Z,4.63
2022-08-16T23:58:52.601Z,4.00
